createdAt,value
2023-05-14T00:02:28.305Z,13.32
2023-05-14T00:05:30.513Z,14.00
2023-05-14T00:08:32.547Z,14.13
2023-05-14T00:11:34.537Z,13.45
2023-05-14T00:14:36.620Z,12.07
2023-05-14T00:17:42.626Z,12.00
2023-05-14T00:20:44.766Z,12.75
2023-05-14T00:23:46.790Z,13.65
2023-05-14T00:26:48.803Z,14.25
2023-05-14T00:29:50.841Z,13.00
2023-05-14T00:32:54.267Z,13.75
2023-05-14T00:35:56.284Z,13.23
2023-05-14T00:38:58.336Z,13.32
2023-05-14T00:42:00.403Z,15.73
2023-05-14T00:45:02.582Z,13.98
2023-05-14T00:48:08.494Z,13.00
2023-05-14T00:51:11.058Z,13.23
2023-05-14T00:54:14.015Z,13.00
2023-05-14T00:57:16.114Z,13.85
2023-05-14T01:00:18.542Z,13.05
2023-05-14T01:03:22.201Z,13.23
2023-05-14T01:06:35.299Z,13.23
2023-05-14T01:09:44.646Z,12.57
2023-05-14T01:12:58.001Z,13.57
2023-05-14T01:16:01.092Z,12.60
2023-05-14T01:19:07.853Z,11.68
2023-05-14T01:22:12.109Z,12.25
2023-05-14T01:25:14.135Z,12.50
2023-05-14T01:28:20.655Z,11.88
2023-05-14T01:31:28.122Z,11.95
2023-05-14T01:34:31.517Z,12.98
2023-05-14T01:37:36.734Z,13.13
2023-05-14T01:40:44.249Z,10.30
2023-05-14T01:43:46.722Z,11.43
2023-05-14T01:46:48.767Z,11.38
2023-05-14T01:49:51.182Z,10.25
2023-05-14T01:52:56.844Z,11.80
2023-05-14T01:55:59.138Z,10.88
2023-05-14T01:59:02.742Z,10.35
2023-05-14T02:02:04.859Z,10.68
2023-05-14T02:05:07.954Z,12.27
2023-05-14T02:08:11.424Z,12.10
2023-05-14T02:11:13.470Z,11.13
2023-05-14T02:14:15.932Z,10.57
2023-05-14T02:17:18.152Z,10.88
2023-05-14T02:20:20.137Z,11.48
2023-05-14T02:23:34.108Z,11.43
2023-05-14T02:26:40.227Z,11.10
2023-05-14T02:29:42.426Z,10.65
2023-05-14T02:32:44.495Z,11.00
2023-05-14T02:35:46.641Z,10.40
2023-05-14T02:38:50.070Z,10.73
2023-05-14T02:41:52.146Z,10.93
2023-05-14T02:44:54.210Z,10.15
2023-05-14T02:47:59.122Z,10.95
2023-05-14T02:51:01.214Z,11.77
2023-05-14T02:54:04.875Z,10.93
2023-05-14T02:57:06.912Z,10.93
2023-05-14T03:00:10.158Z,9.70
2023-05-14T03:03:12.593Z,9.43
2023-05-14T03:06:15.009Z,9.75
2023-05-14T03:09:18.496Z,9.70
2023-05-14T03:12:21.279Z,10.07
2023-05-14T03:15:23.283Z,10.75
2023-05-14T03:18:25.569Z,9.75
2023-05-14T03:21:27.707Z,10.27
2023-05-14T03:24:31.707Z,10.40
2023-05-14T03:27:34.709Z,9.02
2023-05-14T03:30:36.989Z,10.60
2023-05-14T03:33:39.047Z,9.75
2023-05-14T03:36:41.054Z,9.27
2023-05-14T03:39:44.455Z,9.75
2023-05-14T03:42:46.488Z,10.00
2023-05-14T03:45:52.631Z,10.57
2023-05-14T03:48:54.760Z,9.60
2023-05-14T03:51:58.318Z,9.60
2023-05-14T03:55:01.784Z,9.55
2023-05-14T03:58:05.966Z,10.20
2023-05-14T04:01:07.919Z,9.60
2023-05-14T04:04:10.364Z,9.90
2023-05-14T04:07:12.473Z,10.20
2023-05-14T04:10:15.912Z,9.48
2023-05-14T04:13:21.046Z,8.43
2023-05-14T04:16:25.325Z,9.07
2023-05-14T04:19:27.393Z,10.07
2023-05-14T04:22:29.391Z,8.38
2023-05-14T04:25:32.832Z,10.05
2023-05-14T04:28:34.875Z,9.18
2023-05-14T04:31:36.961Z,10.25
2023-05-14T04:34:38.932Z,9.90
2023-05-14T04:37:41.581Z,8.85
2023-05-14T04:40:44.908Z,9.32
2023-05-14T04:43:49.931Z,9.07
2023-05-14T04:46:51.870Z,8.40
2023-05-14T04:49:53.859Z,8.55
2023-05-14T04:52:56.242Z,9.35
2023-05-14T04:55:59.618Z,8.63
2023-05-14T04:59:01.830Z,9.82
2023-05-14T05:02:04.039Z,8.68
2023-05-14T05:05:06.554Z,10.38
2023-05-14T05:08:11.298Z,9.23
2023-05-14T05:11:14.718Z,8.68
2023-05-14T05:14:16.855Z,9.02
2023-05-14T05:17:18.914Z,9.30
2023-05-14T05:20:21.218Z,7.93
2023-05-14T05:23:23.301Z,7.78
2023-05-14T05:26:27.355Z,9.68
2023-05-14T05:29:29.281Z,8.18
2023-05-14T05:32:31.764Z,7.90
2023-05-14T05:35:33.818Z,8.73
2023-05-14T05:38:35.803Z,8.80
2023-05-14T05:41:39.459Z,8.57
2023-05-14T05:44:41.532Z,8.60
2023-05-14T05:47:44.116Z,8.73
2023-05-14T05:50:49.253Z,9.27
2023-05-14T05:53:51.568Z,8.95
2023-05-14T05:56:55.040Z,9.68
2023-05-14T05:59:57.162Z,9.20
2023-05-14T06:02:59.227Z,9.65
2023-05-14T06:06:03.677Z,9.48
2023-05-14T06:09:07.113Z,8.73
2023-05-14T06:12:11.246Z,9.23
2023-05-14T06:15:13.417Z,10.20
2023-05-14T06:18:17.824Z,10.00
2023-05-14T06:21:20.060Z,9.40
2023-05-14T06:24:22.074Z,9.65
2023-05-14T06:27:25.722Z,9.68
2023-05-14T06:30:27.807Z,8.88
2023-05-14T06:33:31.158Z,9.35
2023-05-14T06:36:33.398Z,10.15
2023-05-14T06:39:35.659Z,10.15
2023-05-14T06:42:39.176Z,9.07
2023-05-14T06:45:41.222Z,9.30
2023-05-14T06:48:43.177Z,9.98
2023-05-14T06:51:45.819Z,9.93
2023-05-14T06:54:47.797Z,10.43
2023-05-14T06:57:51.344Z,10.82
2023-05-14T07:00:53.389Z,10.25
2023-05-14T07:03:55.642Z,10.20
2023-05-14T07:06:57.751Z,9.32
2023-05-14T07:09:59.690Z,9.93
2023-05-14T07:13:03.708Z,10.57
2023-05-14T07:16:06.820Z,10.18
2023-05-14T07:19:08.984Z,10.73
2023-05-14T07:22:11.065Z,11.20
2023-05-14T07:25:13.178Z,9.85
2023-05-14T07:28:16.571Z,10.90
2023-05-14T07:31:21.654Z,11.10
2023-05-14T07:34:23.768Z,10.60
2023-05-14T07:37:26.310Z,10.02
2023-05-14T07:40:28.245Z,10.10
2023-05-14T07:43:31.897Z,11.88
2023-05-14T07:46:33.860Z,10.10
2023-05-14T07:49:36.052Z,11.85
2023-05-14T07:52:37.982Z,10.20
2023-05-14T07:55:40.250Z,9.57
2023-05-14T07:58:44.149Z,9.63
2023-05-14T08:01:46.090Z,12.60
2023-05-14T08:04:48.128Z,15.20
2023-05-14T08:07:50.105Z,15.30
2023-05-14T08:10:52.059Z,15.98
2023-05-14T08:13:55.536Z,15.57
2023-05-14T08:16:57.540Z,17.05
2023-05-14T08:19:59.552Z,13.27
2023-05-14T08:23:01.705Z,13.13
2023-05-14T08:26:03.763Z,12.15
2023-05-14T08:29:09.282Z,13.07
2023-05-14T08:32:22.710Z,10.13
2023-05-14T08:35:29.140Z,11.23
2023-05-14T08:38:31.624Z,11.18
2023-05-14T08:41:34.621Z,10.45
2023-05-14T08:44:44.747Z,10.38
2023-05-14T08:47:51.879Z,9.82
2023-05-14T08:50:54.238Z,10.50
2023-05-14T08:53:59.272Z,10.32
2023-05-14T08:57:01.924Z,9.88
2023-05-14T09:00:13.550Z,9.65
2023-05-14T09:03:18.882Z,10.48
2023-05-14T09:06:21.680Z,12.15
2023-05-14T09:09:23.887Z,11.38
2023-05-14T09:12:26.383Z,12.00
2023-05-14T09:15:33.018Z,11.10
2023-05-14T09:18:36.728Z,11.98
2023-05-14T09:21:39.008Z,11.43
2023-05-14T09:24:41.575Z,11.95
2023-05-14T09:27:50.336Z,12.57
2023-05-14T09:30:53.798Z,13.65
2023-05-14T09:33:55.802Z,13.65
2023-05-14T09:37:01.557Z,12.73
2023-05-14T09:40:06.939Z,15.23
2023-05-14T09:43:12.213Z,15.25
2023-05-14T09:46:16.140Z,13.43
2023-05-14T09:49:18.568Z,15.57
2023-05-14T09:52:20.584Z,17.13
2023-05-14T09:55:23.421Z,15.52
2023-05-14T09:58:25.582Z,16.50
2023-05-14T10:01:29.768Z,16.08
2023-05-14T10:04:34.235Z,15.77
2023-05-14T10:07:41.780Z,15.65
2023-05-14T10:10:43.797Z,15.48
2023-05-14T10:13:50.285Z,17.17
2023-05-14T10:16:54.426Z,17.25
2023-05-14T10:19:59.172Z,18.70
2023-05-14T10:23:01.212Z,19.02
2023-05-14T10:26:05.309Z,20.50
2023-05-14T10:29:07.860Z,15.48
2023-05-14T10:32:13.258Z,17.05
2023-05-14T10:35:20.984Z,17.80
2023-05-14T10:38:27.229Z,14.98
2023-05-14T10:41:29.330Z,18.25
2023-05-14T10:44:33.332Z,19.23
2023-05-14T10:47:39.001Z,17.75
2023-05-14T10:50:43.239Z,18.65
2023-05-14T10:53:45.345Z,15.68
2023-05-14T10:56:47.356Z,18.42
2023-05-14T10:59:53.285Z,17.80
2023-05-14T11:02:57.821Z,18.33
2023-05-14T11:06:03.583Z,16.42
2023-05-14T11:12:09.349Z,16.15
2023-05-14T11:15:13.501Z,18.33
2023-05-14T11:18:28.277Z,18.13
2023-05-14T11:21:31.985Z,18.70
2023-05-14T11:24:34.144Z,17.63
2023-05-14T11:27:37.979Z,17.33
2023-05-14T11:30:39.940Z,15.98
2023-05-14T11:33:43.456Z,19.58
2023-05-14T11:36:45.570Z,18.15
2023-05-14T11:39:49.466Z,20.58
2023-05-14T11:42:56.523Z,18.63
2023-05-14T11:45:58.523Z,19.38
2023-05-14T11:49:04.523Z,21.65
2023-05-14T11:52:09.136Z,20.33
2023-05-14T11:55:12.147Z,23.48
2023-05-14T11:58:14.306Z,24.13
2023-05-14T12:01:16.280Z,24.27
2023-05-14T12:04:22.866Z,27.50
2023-05-14T12:07:29.473Z,23.27
2023-05-14T12:10:42.105Z,24.15
2023-05-14T12:13:44.151Z,22.67
2023-05-14T12:16:47.286Z,17.13
2023-05-14T12:19:52.382Z,20.73
2023-05-14T12:22:54.485Z,19.88
2023-05-14T12:26:01.219Z,18.67
2023-05-14T12:29:04.525Z,15.52
2023-05-14T12:32:10.301Z,13.88
2023-05-14T12:35:13.668Z,15.07
2023-05-14T12:38:16.012Z,16.20
2023-05-14T12:41:18.105Z,17.80
2023-05-14T12:44:22.065Z,18.65
2023-05-14T12:47:27.077Z,19.05
2023-05-14T12:50:30.826Z,17.42
2023-05-14T12:53:35.334Z,20.20
2023-05-14T12:56:38.771Z,19.52
2023-05-14T12:59:41.217Z,17.02
2023-05-14T13:02:44.054Z,19.95
2023-05-14T13:05:47.679Z,17.25
2023-05-14T13:08:49.578Z,18.50
2023-05-14T13:11:51.550Z,21.30
2023-05-14T13:14:53.434Z,18.63
2023-05-14T13:17:55.634Z,20.17
2023-05-14T13:20:58.909Z,20.27
2023-05-14T13:24:01.129Z,21.52
2023-05-14T13:27:03.087Z,21.67
2023-05-14T13:30:05.771Z,21.48
2023-05-14T13:33:07.809Z,19.08
2023-05-14T13:36:13.370Z,19.17
2023-05-14T13:39:15.521Z,18.65
2023-05-14T13:42:17.387Z,19.33
2023-05-14T13:45:19.388Z,22.02
2023-05-14T13:48:21.430Z,20.33
2023-05-14T13:51:24.718Z,19.50
2023-05-14T13:54:26.646Z,19.08
2023-05-14T13:57:28.598Z,20.95
2023-05-14T14:00:30.557Z,20.55
2023-05-14T14:03:32.408Z,20.90
2023-05-14T14:06:35.944Z,19.55
2023-05-14T14:09:37.900Z,17.10
2023-05-14T14:12:39.904Z,19.80
2023-05-14T14:15:41.850Z,19.48
2023-05-14T14:18:45.280Z,18.30
2023-05-14T14:24:55.882Z,18.38
2023-05-14T14:27:57.938Z,23.60
2023-05-14T14:31:00.134Z,18.52
2023-05-14T14:34:02.124Z,21.02
2023-05-14T14:37:06.953Z,24.23
2023-05-14T14:40:12.182Z,23.02
2023-05-14T14:43:14.138Z,21.35
2023-05-14T14:46:16.243Z,18.45
2023-05-14T14:49:18.186Z,20.27
2023-05-14T14:52:21.602Z,21.55
2023-05-14T14:55:23.701Z,19.25
2023-05-14T14:58:26.183Z,19.30
2023-05-14T15:01:28.253Z,21.08
2023-05-14T15:04:33.352Z,19.65
2023-05-14T15:07:36.798Z,14.32
2023-05-14T15:10:38.900Z,14.80
2023-05-14T15:13:42.004Z,13.68
2023-05-14T15:16:43.988Z,12.75
2023-05-14T15:19:46.081Z,12.05
2023-05-14T15:22:52.356Z,13.20
2023-05-14T15:25:54.302Z,15.02
2023-05-14T15:28:56.360Z,10.88
2023-05-14T15:31:58.373Z,13.55
2023-05-14T15:35:01.188Z,12.52
2023-05-14T15:38:08.521Z,10.93
2023-05-14T15:41:10.570Z,11.35
2023-05-14T15:44:12.519Z,11.75
2023-05-14T15:47:14.396Z,10.35
2023-05-14T15:50:16.266Z,9.85
2023-05-14T15:53:21.984Z,11.73
2023-05-14T15:59:25.691Z,10.10
2023-05-14T16:02:33.365Z,11.07
2023-05-14T16:05:35.485Z,10.57
2023-05-14T16:08:38.942Z,11.68
2023-05-14T16:11:40.819Z,12.05
2023-05-14T16:14:42.707Z,14.20
2023-05-14T16:17:44.811Z,12.90
2023-05-14T16:20:48.905Z,13.82
2023-05-14T16:23:52.227Z,12.07
2023-05-14T16:26:54.304Z,10.45
2023-05-14T16:29:56.156Z,11.60
2023-05-14T16:32:58.063Z,11.48
2023-05-14T16:35:59.987Z,11.38
2023-05-14T16:39:07.407Z,11.10
2023-05-14T16:42:09.871Z,10.25
2023-05-14T16:45:12.185Z,9.48
2023-05-14T16:48:14.097Z,9.40
2023-05-14T16:51:16.075Z,9.80
2023-05-14T16:54:19.441Z,10.05
2023-05-14T16:57:21.402Z,10.15
2023-05-14T17:00:23.474Z,11.23
2023-05-14T17:03:25.461Z,12.13
2023-05-14T17:06:27.489Z,11.80
2023-05-14T17:09:31.359Z,11.13
2023-05-14T17:12:33.263Z,11.85
2023-05-14T17:15:35.446Z,12.45
2023-05-14T17:18:38.213Z,10.52
2023-05-14T17:21:40.281Z,11.52
2023-05-14T17:24:43.741Z,10.98
2023-05-14T17:27:47.599Z,9.52
2023-05-14T17:30:49.507Z,11.27
2023-05-14T17:33:51.576Z,11.07
2023-05-14T17:36:53.586Z,12.00
2023-05-14T17:39:57.009Z,11.10
2023-05-14T17:42:58.906Z,11.57
2023-05-14T17:46:02.171Z,14.63
2023-05-14T17:49:04.070Z,13.05
2023-05-14T17:52:06.795Z,10.48
2023-05-14T17:55:10.139Z,12.57
2023-05-14T17:58:13.510Z,15.07
2023-05-14T18:01:15.513Z,15.45
2023-05-14T18:04:18.736Z,14.40
2023-05-14T18:07:23.080Z,14.13
2023-05-14T18:10:27.873Z,17.00
2023-05-14T18:13:29.919Z,14.40
2023-05-14T18:16:31.958Z,13.80
2023-05-14T18:19:34.327Z,15.98
2023-05-14T18:22:36.671Z,14.82
2023-05-14T18:25:40.029Z,16.00
2023-05-14T18:28:42.057Z,16.13
2023-05-14T18:31:44.156Z,14.15
2023-05-14T18:34:46.083Z,16.25
2023-05-14T18:37:49.009Z,14.55
2023-05-14T18:40:52.405Z,14.77
2023-05-14T18:43:54.672Z,17.48
2023-05-14T18:46:57.052Z,16.73
2023-05-14T18:50:01.869Z,13.63
2023-05-14T18:53:04.506Z,14.18
2023-05-14T18:56:09.330Z,13.93
2023-05-14T18:59:11.977Z,12.32
2023-05-14T19:02:16.817Z,15.68
2023-05-14T19:05:19.889Z,14.60
2023-05-14T19:08:22.415Z,16.30
2023-05-14T19:11:26.664Z,15.30
2023-05-14T19:14:31.342Z,13.82
2023-05-14T19:17:34.205Z,15.27
2023-05-14T19:20:36.644Z,15.60
2023-05-14T19:23:39.814Z,15.23
2023-05-14T19:26:43.367Z,16.92
2023-05-14T19:29:46.966Z,17.23
2023-05-14T19:32:49.640Z,16.45
2023-05-14T19:35:52.334Z,19.38
2023-05-14T19:38:54.772Z,19.23
2023-05-14T19:41:58.149Z,19.50
2023-05-14T19:45:00.176Z,19.27
2023-05-14T19:48:02.546Z,19.70
2023-05-14T19:51:04.491Z,18.95
2023-05-14T19:54:06.952Z,19.58
2023-05-14T19:57:11.212Z,21.67
2023-05-14T20:00:14.504Z,21.20
2023-05-14T20:03:16.541Z,19.30
2023-05-14T20:06:18.842Z,18.52
2023-05-14T20:09:21.319Z,18.90
2023-05-14T20:12:25.195Z,13.90
2023-05-14T20:15:27.380Z,13.88
2023-05-14T20:18:29.514Z,11.10
2023-05-14T20:21:32.178Z,10.38
2023-05-14T20:24:34.105Z,11.80
2023-05-14T20:27:37.545Z,11.40
2023-05-14T20:30:40.346Z,11.60
2023-05-14T20:33:42.358Z,12.30
2023-05-14T20:36:44.545Z,11.63
2023-05-14T20:39:46.859Z,11.50
2023-05-14T20:42:50.531Z,11.45
2023-05-14T20:45:52.483Z,11.75
2023-05-14T20:48:55.123Z,12.77
2023-05-14T20:51:59.316Z,12.45
2023-05-14T20:55:01.970Z,14.02
2023-05-14T20:58:05.791Z,12.40
2023-05-14T21:01:08.219Z,12.90
2023-05-14T21:04:10.726Z,12.57
2023-05-14T21:07:12.787Z,12.95
2023-05-14T21:10:14.697Z,13.02
2023-05-14T21:13:17.966Z,12.68
2023-05-14T21:16:20.296Z,14.40
2023-05-14T21:19:22.866Z,13.93
2023-05-14T21:22:25.136Z,14.07
2023-05-14T21:25:27.300Z,13.38
2023-05-14T21:28:31.424Z,14.95
2023-05-14T21:31:36.096Z,14.27
2023-05-14T21:34:38.278Z,14.00
2023-05-14T21:37:40.648Z,11.95
2023-05-14T21:40:42.722Z,13.32
2023-05-14T21:43:46.148Z,12.85
2023-05-14T21:46:48.249Z,14.25
2023-05-14T21:49:50.128Z,12.68
2023-05-14T21:52:52.027Z,13.93
2023-05-14T21:55:55.403Z,13.15
2023-05-14T21:58:58.717Z,13.70
2023-05-14T22:05:06.159Z,12.35
2023-05-14T22:08:08.053Z,11.73
2023-05-14T22:11:10.022Z,12.18
2023-05-14T22:14:13.551Z,13.02
2023-05-14T22:17:15.430Z,12.07
2023-05-14T22:20:17.534Z,13.40
2023-05-14T22:23:19.382Z,12.57
2023-05-14T22:26:24.434Z,14.55
2023-05-14T22:29:27.937Z,13.32
2023-05-14T22:32:30.060Z,11.48
2023-05-14T22:35:32.105Z,11.90
2023-05-14T22:38:34.286Z,13.35
2023-05-14T22:41:36.509Z,11.95
2023-05-14T22:44:39.766Z,12.75
2023-05-14T22:47:41.684Z,12.93
2023-05-14T22:50:43.798Z,12.02
2023-05-14T22:53:47.191Z,11.85
2023-05-14T22:56:49.268Z,12.73
2023-05-14T22:59:55.140Z,12.90
2023-05-14T23:02:57.116Z,13.38
2023-05-14T23:05:59.233Z,12.32
2023-05-14T23:09:01.214Z,10.98
2023-05-14T23:12:03.210Z,11.30
2023-05-14T23:15:07.403Z,14.85
2023-05-14T23:18:09.471Z,11.57
2023-05-14T23:21:12.375Z,10.55
2023-05-14T23:24:14.274Z,11.60
2023-05-14T23:27:16.329Z,11.18
2023-05-14T23:30:19.805Z,13.05
2023-05-14T23:33:21.692Z,10.85
2023-05-14T23:36:24.182Z,12.88
2023-05-14T23:39:26.291Z,10.82
2023-05-14T23:42:28.313Z,11.52
2023-05-14T23:45:31.724Z,11.07
2023-05-14T23:48:33.579Z,11.00
2023-05-14T23:51:38.168Z,10.93
2023-05-14T23:54:40.027Z,10.85
2023-05-14T23:57:42.011Z,10.45
